createdAt,value
2018-05-23T00:00:00.419Z,25.70
2018-05-23T00:02:28.544Z,25.90
2018-05-23T00:04:56.718Z,27.83
2018-05-23T00:07:24.865Z,24.73
2018-05-23T00:09:52.976Z,26.70
2018-05-23T00:12:21.892Z,28.50
2018-05-23T00:14:50.053Z,27.10
2018-05-23T00:17:18.187Z,27.43
2018-05-23T00:19:46.313Z,27.77
2018-05-23T00:22:14.462Z,26.90
2018-05-23T00:24:42.658Z,32.93
2018-05-23T00:27:10.795Z,32.00
2018-05-23T00:29:39.693Z,32.00
2018-05-23T00:32:08.608Z,32.47
2018-05-23T00:34:36.752Z,33.23
2018-05-23T00:37:05.672Z,34.53
2018-05-23T00:39:33.850Z,33.33
2018-05-23T00:42:02.021Z,34.00
2018-05-23T00:44:30.936Z,35.20
2018-05-23T00:46:59.107Z,36.57
2018-05-23T00:49:27.228Z,33.87
2018-05-23T00:51:55.372Z,35.57
2018-05-23T00:54:23.549Z,34.87
2018-05-23T00:56:51.674Z,38.43
2018-05-23T00:59:20.577Z,33.90
2018-05-23T01:01:48.749Z,31.50
2018-05-23T01:04:16.902Z,35.07
2018-05-23T01:06:45.833Z,32.60
2018-05-23T01:09:13.952Z,33.83
2018-05-23T01:11:42.161Z,33.20
2018-05-23T01:14:10.348Z,31.67
2018-05-23T01:16:38.481Z,32.90
2018-05-23T01:19:07.394Z,34.60
2018-05-23T01:21:35.528Z,34.20
2018-05-23T01:24:03.744Z,33.10
2018-05-23T01:26:31.904Z,35.87
2018-05-23T01:29:00.032Z,35.50
2018-05-23T01:31:28.172Z,33.23
2018-05-23T01:33:56.347Z,32.47
2018-05-23T01:36:24.495Z,32.60
2018-05-23T01:38:53.408Z,36.50
2018-05-23T01:41:21.532Z,35.60
2018-05-23T01:43:51.323Z,35.57
2018-05-23T01:46:19.470Z,33.70
2018-05-23T01:48:59.355Z,36.80
2018-05-23T01:51:27.508Z,38.57
2018-05-23T01:53:55.658Z,36.30
2018-05-23T01:56:23.797Z,35.97
2018-05-23T01:58:52.744Z,38.20
2018-05-23T02:01:20.871Z,39.00
2018-05-23T02:03:49.763Z,41.03
2018-05-23T02:06:18.676Z,42.23
2018-05-23T02:08:46.970Z,41.60
2018-05-23T02:11:15.089Z,41.40
2018-05-23T02:13:43.239Z,42.23
2018-05-23T02:16:11.380Z,39.23
2018-05-23T02:18:39.512Z,36.07
2018-05-23T02:21:07.652Z,38.27
2018-05-23T02:23:35.785Z,37.57
2018-05-23T02:26:03.935Z,40.53
2018-05-23T02:28:32.835Z,41.67
2018-05-23T02:31:01.726Z,38.23
2018-05-23T02:33:30.638Z,39.90
2018-05-23T02:35:58.808Z,36.83
2018-05-23T02:38:26.939Z,39.83
2018-05-23T02:40:55.161Z,37.47
2018-05-23T02:43:23.335Z,38.77
2018-05-23T02:45:52.085Z,38.23
2018-05-23T02:48:20.987Z,38.00
2018-05-23T02:50:49.884Z,39.97
2018-05-23T02:53:18.792Z,45.00
2018-05-23T02:55:46.981Z,40.47
2018-05-23T02:58:15.113Z,44.17
2018-05-23T03:00:44.009Z,41.53
2018-05-23T03:03:13.027Z,40.30
2018-05-23T03:05:41.209Z,39.93
2018-05-23T03:08:09.324Z,42.17
2018-05-23T03:10:37.562Z,42.70
2018-05-23T03:13:05.693Z,41.07
2018-05-23T03:15:34.583Z,41.83
2018-05-23T03:18:03.605Z,42.30
2018-05-23T03:20:31.734Z,41.63
2018-05-23T03:22:59.967Z,39.90
2018-05-23T03:25:28.101Z,39.07
2018-05-23T03:27:57.027Z,40.17
2018-05-23T03:30:25.155Z,42.30
2018-05-23T03:32:54.075Z,49.50
2018-05-23T03:35:22.230Z,48.10
2018-05-23T03:37:51.240Z,41.93
2018-05-23T03:40:19.390Z,42.10
2018-05-23T03:42:48.322Z,45.60
2018-05-23T03:45:16.427Z,44.07
2018-05-23T03:47:44.665Z,46.20
2018-05-23T03:50:12.809Z,50.03
2018-05-23T03:52:41.711Z,54.23
2018-05-23T03:55:10.819Z,51.67
2018-05-23T03:57:38.953Z,54.30
2018-05-23T04:00:19.045Z,61.90
2018-05-23T04:02:59.201Z,59.37
2018-05-23T04:05:39.072Z,69.90
2018-05-23T04:08:07.213Z,76.07
2018-05-23T04:10:35.408Z,84.30
2018-05-23T04:13:03.566Z,57.33
2018-05-23T04:15:31.821Z,64.00
2018-05-23T04:17:59.892Z,78.40
2018-05-23T04:20:28.788Z,82.33
2018-05-23T04:22:57.820Z,78.13
2018-05-23T04:25:25.932Z,86.63
2018-05-23T04:27:54.076Z,101.07
2018-05-23T04:30:22.226Z,81.90
2018-05-23T04:32:50.352Z,71.77
2018-05-23T04:35:18.565Z,75.30
2018-05-23T04:37:46.704Z,71.53
2018-05-23T04:40:15.612Z,76.97
2018-05-23T04:42:44.501Z,72.17
2018-05-23T04:45:13.423Z,67.27
2018-05-23T04:47:41.560Z,79.83
2018-05-23T04:50:10.468Z,61.23
2018-05-23T04:52:38.617Z,73.27
2018-05-23T04:55:06.735Z,61.00
2018-05-23T04:57:34.882Z,69.70
2018-05-23T05:00:03.024Z,63.40
2018-05-23T05:02:31.147Z,60.83
2018-05-23T05:04:59.334Z,56.73
2018-05-23T05:07:27.465Z,66.40
2018-05-23T05:09:56.387Z,63.57
2018-05-23T05:12:24.561Z,58.83
2018-05-23T05:14:52.710Z,65.30
2018-05-23T05:17:20.896Z,67.00
2018-05-23T05:19:49.033Z,56.47
2018-05-23T05:22:17.208Z,59.57
2018-05-23T05:24:45.344Z,56.57
2018-05-23T05:27:13.521Z,55.63
2018-05-23T05:29:41.656Z,55.03
2018-05-23T05:32:10.553Z,60.90
2018-05-23T05:34:38.699Z,60.03
2018-05-23T05:37:07.613Z,65.53
2018-05-23T05:39:35.764Z,72.00
2018-05-23T05:42:04.664Z,75.90
2018-05-23T05:44:33.589Z,63.03
2018-05-23T05:47:01.769Z,54.90
2018-05-23T05:49:29.938Z,61.07
2018-05-23T05:51:58.095Z,65.20
2018-05-23T05:54:26.235Z,56.57
2018-05-23T05:56:54.378Z,68.60
2018-05-23T05:59:22.515Z,61.00
2018-05-23T06:01:50.698Z,72.07
2018-05-23T06:04:18.842Z,57.97
2018-05-23T06:06:47.729Z,52.83
2018-05-23T06:09:16.660Z,54.33
2018-05-23T06:11:44.821Z,62.10
2018-05-23T06:14:13.002Z,60.20
2018-05-23T06:16:41.164Z,66.43
2018-05-23T06:19:09.336Z,55.00
2018-05-23T06:21:37.613Z,52.00
2018-05-23T06:24:05.780Z,53.10
2018-05-23T06:26:33.964Z,60.83
2018-05-23T06:29:02.116Z,47.30
2018-05-23T06:31:31.024Z,50.67
2018-05-23T06:33:59.195Z,51.93
2018-05-23T06:36:28.199Z,38.93
2018-05-23T06:38:56.364Z,33.23
2018-05-23T06:41:24.509Z,33.73
2018-05-23T06:43:52.700Z,31.37
2018-05-23T06:46:21.630Z,37.90
2018-05-23T06:48:49.775Z,34.53
2018-05-23T06:51:17.955Z,33.67
2018-05-23T06:53:46.152Z,30.87
2018-05-23T06:56:14.407Z,33.63
2018-05-23T06:58:42.576Z,30.00
2018-05-23T07:01:10.703Z,31.40
2018-05-23T07:03:38.928Z,30.27
2018-05-23T07:06:07.084Z,29.40
2018-05-23T07:08:35.998Z,29.90
2018-05-23T07:11:04.218Z,30.27
2018-05-23T07:13:32.256Z,30.10
2018-05-23T07:16:00.410Z,29.43
2018-05-23T07:18:28.553Z,28.60
2018-05-23T07:20:57.516Z,31.73
2018-05-23T07:23:25.639Z,30.13
2018-05-23T07:25:53.850Z,29.03
2018-05-23T07:28:21.955Z,30.50
2018-05-23T07:30:50.128Z,28.70
2018-05-23T07:33:18.303Z,28.27
2018-05-23T07:35:46.533Z,32.10
2018-05-23T07:38:14.705Z,29.90
2018-05-23T07:40:42.849Z,30.27
2018-05-23T07:43:11.741Z,31.47
2018-05-23T07:45:40.639Z,33.80
2018-05-23T07:48:09.551Z,33.10
2018-05-23T07:50:37.706Z,34.03
2018-05-23T07:53:05.848Z,33.37
2018-05-23T07:55:34.075Z,31.43
2018-05-23T07:58:02.235Z,32.00
2018-05-23T08:00:30.525Z,37.07
2018-05-23T08:02:58.697Z,34.50
2018-05-23T08:05:26.813Z,36.67
2018-05-23T08:07:56.586Z,37.63
2018-05-23T08:10:24.743Z,37.87
2018-05-23T08:12:52.917Z,36.63
2018-05-23T08:15:21.103Z,38.70
2018-05-23T08:17:49.231Z,42.67
2018-05-23T08:20:18.139Z,41.30
2018-05-23T08:22:47.053Z,42.13
2018-05-23T08:25:15.196Z,44.43
2018-05-23T08:27:44.329Z,53.40
2018-05-23T08:30:12.466Z,56.93
2018-05-23T08:32:41.376Z,58.27
2018-05-23T08:35:09.529Z,60.47
2018-05-23T08:37:38.546Z,62.30
2018-05-23T08:40:06.736Z,65.83
2018-05-23T08:42:34.853Z,62.47
2018-05-23T08:45:03.013Z,64.13
2018-05-23T08:47:31.152Z,67.97
2018-05-23T08:49:59.321Z,63.47
2018-05-23T08:52:27.500Z,65.60
2018-05-23T08:55:01.508Z,66.83
2018-05-23T08:57:29.677Z,65.17
2018-05-23T08:59:58.128Z,70.13
2018-05-23T09:02:27.020Z,65.70
2018-05-23T09:04:56.023Z,65.53
2018-05-23T09:07:24.086Z,64.73
2018-05-23T09:09:53.112Z,63.70
2018-05-23T09:12:21.313Z,64.37
2018-05-23T09:14:49.423Z,63.53
2018-05-23T09:17:18.356Z,65.00
2018-05-23T09:19:46.634Z,70.77
2018-05-23T09:22:14.744Z,66.67
2018-05-23T09:24:42.867Z,69.83
2018-05-23T09:27:11.043Z,77.13
2018-05-23T09:29:39.613Z,78.30
2018-05-23T09:32:07.807Z,78.07
2018-05-23T09:34:36.681Z,74.33
2018-05-23T09:37:04.816Z,79.17
2018-05-23T09:39:32.967Z,73.60
2018-05-23T09:42:01.138Z,74.00
2018-05-23T09:44:29.262Z,76.70
2018-05-23T09:46:58.267Z,73.83
2018-05-23T09:49:26.395Z,78.17
2018-05-23T09:51:54.536Z,75.60
2018-05-23T09:54:22.689Z,78.03
2018-05-23T09:56:50.830Z,73.80
2018-05-23T09:59:19.731Z,74.00
2018-05-23T10:01:48.748Z,72.13
2018-05-23T10:04:16.873Z,70.77
2018-05-23T10:06:45.110Z,71.43
2018-05-23T10:09:13.256Z,71.57
2018-05-23T10:11:41.425Z,69.57
2018-05-23T10:14:10.334Z,70.93
2018-05-23T10:16:38.519Z,71.73
2018-05-23T10:19:06.672Z,67.97
2018-05-23T10:21:34.820Z,65.70
2018-05-23T10:24:03.022Z,70.00
2018-05-23T10:26:31.906Z,67.90
2018-05-23T10:29:00.923Z,65.27
2018-05-23T10:31:29.150Z,62.43
2018-05-23T10:33:57.976Z,63.87
2018-05-23T10:36:26.159Z,62.13
2018-05-23T10:38:54.446Z,58.37
2018-05-23T10:41:22.583Z,55.93
2018-05-23T10:43:51.484Z,56.93
2018-05-23T10:46:20.416Z,54.10
2018-05-23T10:48:48.532Z,55.40
2018-05-23T10:51:17.552Z,54.83
2018-05-23T10:53:46.109Z,50.50
2018-05-23T10:56:14.994Z,51.27
2018-05-23T10:58:43.921Z,53.13
2018-05-23T11:01:12.071Z,49.43
2018-05-23T11:03:40.191Z,49.83
2018-05-23T11:06:08.365Z,45.53
2018-05-23T11:08:36.539Z,42.60
2018-05-23T11:11:04.693Z,39.40
2018-05-23T11:13:32.808Z,38.47
2018-05-23T11:16:01.026Z,38.27
2018-05-23T11:18:29.185Z,37.63
2018-05-23T11:20:58.097Z,35.70
2018-05-23T11:23:26.267Z,35.40
2018-05-23T11:25:54.423Z,35.40
2018-05-23T11:28:23.311Z,32.93
2018-05-23T11:30:52.217Z,33.17
2018-05-23T11:33:20.374Z,29.53
2018-05-23T11:35:49.272Z,28.63
2018-05-23T11:38:18.195Z,36.20
2018-05-23T11:40:46.363Z,26.10
2018-05-23T11:43:14.502Z,24.90
2018-05-23T11:45:43.433Z,22.67
2018-05-23T11:48:11.553Z,19.33
2018-05-23T11:50:39.696Z,19.93
2018-05-23T11:53:07.937Z,14.73
2018-05-23T11:55:36.116Z,16.20
2018-05-23T11:58:04.254Z,15.90
2018-05-23T12:00:32.396Z,13.03
2018-05-23T12:03:00.556Z,13.27
2018-05-23T12:05:28.680Z,16.87
2018-05-23T12:07:57.568Z,16.90
2018-05-23T12:10:26.674Z,15.47
2018-05-23T12:12:54.760Z,14.03
2018-05-23T12:15:22.884Z,16.60
2018-05-23T12:17:51.128Z,15.70
2018-05-23T12:20:20.808Z,16.97
2018-05-23T12:22:49.732Z,13.50
2018-05-23T12:25:17.962Z,13.63
2018-05-23T12:27:46.076Z,13.80
2018-05-23T12:30:14.236Z,11.20
2018-05-23T12:32:42.389Z,13.37
2018-05-23T12:35:11.314Z,18.03
2018-05-23T12:37:39.444Z,11.73
2018-05-23T12:40:07.584Z,13.30
2018-05-23T12:42:35.748Z,12.80
2018-05-23T12:45:03.899Z,12.30
2018-05-23T12:47:32.025Z,13.60
2018-05-23T12:50:00.166Z,10.00
2018-05-23T12:52:28.327Z,15.57
2018-05-23T12:54:56.448Z,13.67
2018-05-23T12:57:24.566Z,10.43
2018-05-23T12:59:52.738Z,13.07
2018-05-23T13:02:20.860Z,12.40
2018-05-23T13:04:49.050Z,13.43
2018-05-23T13:07:17.178Z,13.93
2018-05-23T13:09:45.317Z,11.00
2018-05-23T13:12:14.236Z,16.93
2018-05-23T13:14:42.400Z,14.77
2018-05-23T13:17:10.686Z,11.53
2018-05-23T13:19:38.824Z,15.73
2018-05-23T13:22:07.726Z,13.60
2018-05-23T13:24:36.628Z,13.67
2018-05-23T13:27:04.778Z,14.83
2018-05-23T13:29:33.813Z,18.83
2018-05-23T13:32:01.938Z,16.57
2018-05-23T13:34:30.972Z,15.40
2018-05-23T13:36:59.104Z,14.23
2018-05-23T13:39:28.037Z,20.97
2018-05-23T13:41:56.199Z,15.17
2018-05-23T13:44:24.373Z,19.40
2018-05-23T13:46:52.663Z,14.47
2018-05-23T13:49:20.847Z,18.30
2018-05-23T13:51:49.019Z,17.67
2018-05-23T13:54:17.269Z,14.87
2018-05-23T13:56:45.401Z,16.03
2018-05-23T13:59:15.063Z,19.30
2018-05-23T14:01:43.270Z,17.77
2018-05-23T14:04:11.397Z,20.33
2018-05-23T14:06:39.529Z,17.90
2018-05-23T14:09:09.192Z,18.00
2018-05-23T14:11:37.364Z,18.73
2018-05-23T14:14:05.555Z,19.07
2018-05-23T14:16:33.709Z,21.70
2018-05-23T14:19:01.904Z,20.47
2018-05-23T14:21:30.033Z,20.13
2018-05-23T14:23:58.971Z,22.93
2018-05-23T14:26:27.088Z,19.60
2018-05-23T14:28:55.999Z,23.70
2018-05-23T14:31:24.919Z,22.93
2018-05-23T14:33:53.051Z,25.17
2018-05-23T14:36:21.950Z,29.40
2018-05-23T14:38:50.851Z,24.67
2018-05-23T14:41:19.763Z,24.47
2018-05-23T14:43:47.964Z,25.73
2018-05-23T14:46:16.832Z,28.07
2018-05-23T14:48:44.937Z,28.13
2018-05-23T14:51:13.239Z,28.47
2018-05-23T14:53:42.157Z,28.23
2018-05-23T14:56:10.409Z,28.43
2018-05-23T14:58:38.539Z,29.93
2018-05-23T15:01:06.694Z,29.97
2018-05-23T15:03:34.851Z,33.17
2018-05-23T15:06:02.980Z,33.97
2018-05-23T15:08:31.334Z,32.10
2018-05-23T15:10:59.478Z,32.13
2018-05-23T15:13:27.672Z,29.00
2018-05-23T15:15:55.822Z,29.17
2018-05-23T15:18:24.013Z,29.03
2018-05-23T15:20:52.190Z,29.80
2018-05-23T15:23:20.359Z,34.13
2018-05-23T15:25:48.490Z,33.40
2018-05-23T15:28:17.376Z,32.83
2018-05-23T15:30:45.508Z,28.70
2018-05-23T15:33:13.766Z,30.83
2018-05-23T15:35:43.036Z,31.17
2018-05-23T15:38:12.066Z,31.10
2018-05-23T15:40:40.224Z,34.80
2018-05-23T15:43:08.408Z,32.03
2018-05-23T15:45:36.570Z,30.33
2018-05-23T15:48:04.744Z,31.83
2018-05-23T15:50:32.924Z,31.20
2018-05-23T15:53:01.102Z,32.60
2018-05-23T15:55:29.308Z,30.73
2018-05-23T15:58:01.007Z,32.63
2018-05-23T16:00:30.027Z,30.67
2018-05-23T16:02:58.270Z,29.93
2018-05-23T16:05:26.383Z,29.77
2018-05-23T16:07:54.524Z,30.40
2018-05-23T16:10:23.448Z,30.60
2018-05-23T16:12:51.592Z,30.93
2018-05-23T16:15:20.532Z,31.87
2018-05-23T16:17:48.663Z,31.67
2018-05-23T16:20:16.869Z,31.13
2018-05-23T16:22:45.056Z,32.37
2018-05-23T16:25:16.160Z,33.87
2018-05-23T16:27:44.356Z,35.60
2018-05-23T16:30:12.492Z,36.50
2018-05-23T16:32:41.418Z,36.67
2018-05-23T16:35:09.552Z,36.30
2018-05-23T16:37:38.470Z,38.43
2018-05-23T16:40:06.650Z,44.43
2018-05-23T16:42:34.826Z,44.67
2018-05-23T16:45:03.076Z,43.60
2018-05-23T16:47:32.028Z,57.03
2018-05-23T16:50:00.136Z,39.80
2018-05-23T16:52:29.178Z,37.43
2018-05-23T16:54:57.309Z,44.70
2018-05-23T16:57:26.334Z,45.73
2018-05-23T16:59:54.463Z,39.93
2018-05-23T17:02:22.620Z,54.03
2018-05-23T17:04:52.289Z,55.90
2018-05-23T17:07:20.555Z,45.17
2018-05-23T17:09:48.679Z,50.23
2018-05-23T17:12:16.819Z,49.83
2018-05-23T17:14:44.995Z,47.40
2018-05-23T17:17:13.144Z,61.63
2018-05-23T17:19:41.333Z,58.17
2018-05-23T17:22:09.487Z,60.90
2018-05-23T17:24:37.681Z,58.57
2018-05-23T17:27:05.855Z,52.87
2018-05-23T17:29:34.017Z,55.53
2018-05-23T17:32:02.191Z,49.67
2018-05-23T17:34:30.361Z,50.90
2018-05-23T17:36:58.535Z,54.77
2018-05-23T17:39:26.730Z,49.53
2018-05-23T17:41:54.866Z,49.60
2018-05-23T17:44:23.761Z,55.23
2018-05-23T17:46:52.681Z,57.20
2018-05-23T17:49:20.855Z,53.37
2018-05-23T17:51:48.987Z,50.90
2018-05-23T17:54:17.877Z,53.17
2018-05-23T17:56:46.795Z,50.90
2018-05-23T17:59:14.978Z,58.23
2018-05-23T18:01:43.175Z,49.03
2018-05-23T18:04:11.331Z,45.43
2018-05-23T18:06:39.494Z,48.07
2018-05-23T18:09:07.641Z,44.90
2018-05-23T18:11:36.576Z,49.83
2018-05-23T18:14:04.712Z,49.30
2018-05-23T18:16:34.004Z,47.23
2018-05-23T18:19:03.040Z,46.03
2018-05-23T18:21:31.172Z,46.53
2018-05-23T18:24:00.112Z,48.23
2018-05-23T18:26:28.260Z,42.40
2018-05-23T18:28:56.400Z,42.03
2018-05-23T18:31:24.560Z,42.37
2018-05-23T18:33:54.202Z,44.37
2018-05-23T18:36:23.092Z,45.40
2018-05-23T18:38:52.010Z,45.90
2018-05-23T18:41:20.190Z,41.00
2018-05-23T18:43:49.128Z,39.17
2018-05-23T18:46:17.273Z,40.60
2018-05-23T18:48:45.476Z,39.03
2018-05-23T18:51:13.649Z,41.37
2018-05-23T18:53:42.696Z,38.50
2018-05-23T18:56:10.860Z,38.97
2018-05-23T18:58:39.146Z,36.23
2018-05-23T19:01:07.284Z,37.47
2018-05-23T19:03:36.217Z,36.63
2018-05-23T19:06:04.368Z,36.50
2018-05-23T19:08:33.888Z,40.70
2018-05-23T19:11:02.652Z,36.87
2018-05-23T19:13:30.816Z,38.60
2018-05-23T19:15:59.720Z,38.87
2018-05-23T19:18:27.848Z,39.77
2018-05-23T19:20:55.993Z,39.73
2018-05-23T19:23:24.141Z,39.40
2018-05-23T19:25:53.036Z,40.40
2018-05-23T19:28:22.096Z,41.50
2018-05-23T19:30:50.222Z,41.80
2018-05-23T19:33:18.494Z,44.33
2018-05-23T19:35:46.615Z,42.50
2018-05-23T19:38:15.512Z,45.27
2018-05-23T19:40:44.427Z,45.80
2018-05-23T19:43:12.624Z,45.17
2018-05-23T19:45:41.110Z,40.20
2018-05-23T19:48:09.617Z,41.80
2018-05-23T19:50:37.740Z,39.40
2018-05-23T19:53:05.876Z,39.87
2018-05-23T19:55:34.040Z,39.03
2018-05-23T19:58:02.175Z,41.10
2018-05-23T20:00:30.323Z,44.37
2018-05-23T20:02:59.284Z,47.93
2018-05-23T20:05:27.527Z,47.60
2018-05-23T20:07:55.697Z,48.13
2018-05-23T20:10:23.821Z,46.93
2018-05-23T20:12:51.962Z,47.10
2018-05-23T20:15:20.107Z,46.60
2018-05-23T20:17:48.255Z,45.77
2018-05-23T20:20:17.147Z,45.87
2018-05-23T20:22:46.117Z,49.80
2018-05-23T20:25:14.248Z,44.60
2018-05-23T20:27:42.371Z,47.77
2018-05-23T20:30:11.692Z,49.13
2018-05-23T20:32:40.599Z,46.30
2018-05-23T20:35:08.728Z,47.20
2018-05-23T20:37:36.873Z,49.03
2018-05-23T20:40:05.016Z,46.30
2018-05-23T20:42:33.172Z,49.30
2018-05-23T20:45:02.109Z,47.43
2018-05-23T20:47:30.239Z,45.17
2018-05-23T20:49:59.173Z,46.40
2018-05-23T20:52:27.317Z,45.67
2018-05-23T20:54:55.445Z,42.63
2018-05-23T20:57:23.567Z,47.83
2018-05-23T20:59:51.723Z,45.40
2018-05-23T21:02:20.643Z,45.70
2018-05-23T21:04:48.779Z,40.00
2018-05-23T21:07:17.693Z,40.77
2018-05-23T21:09:45.841Z,36.63
2018-05-23T21:12:14.773Z,35.43
2018-05-23T21:14:42.909Z,25.27
2018-05-23T21:17:11.813Z,23.67
2018-05-23T21:19:40.717Z,29.47
2018-05-23T21:22:08.875Z,28.57
2018-05-23T21:24:37.767Z,26.93
2018-05-23T21:27:05.919Z,25.17
2018-05-23T21:29:34.051Z,29.83
2018-05-23T21:32:02.295Z,23.33
2018-05-23T21:34:30.513Z,18.30
2018-05-23T21:36:58.635Z,26.83
2018-05-23T21:39:27.569Z,23.33
2018-05-23T21:41:55.697Z,24.23
2018-05-23T21:44:24.725Z,21.53
2018-05-23T21:46:52.847Z,24.17
2018-05-23T21:49:20.977Z,24.33
2018-05-23T21:51:49.157Z,21.17
2018-05-23T21:54:17.288Z,21.27
2018-05-23T21:56:45.429Z,21.63
2018-05-23T21:59:13.589Z,22.10
2018-05-23T22:01:41.743Z,22.03
2018-05-23T22:04:09.905Z,21.47
2018-05-23T22:06:38.031Z,19.07
2018-05-23T22:09:06.238Z,19.77
2018-05-23T22:11:34.410Z,20.93
2018-05-23T22:14:02.555Z,20.67
2018-05-23T22:16:31.489Z,19.07
2018-05-23T22:18:59.644Z,18.50
2018-05-23T22:21:27.780Z,19.30
2018-05-23T22:23:55.924Z,19.47
2018-05-23T22:26:24.056Z,19.03
2018-05-23T22:28:52.948Z,20.57
2018-05-23T22:31:21.978Z,21.00
2018-05-23T22:33:50.146Z,22.60
2018-05-23T22:36:18.280Z,25.73
2018-05-23T22:38:47.214Z,23.00
2018-05-23T22:41:15.356Z,25.57
2018-05-23T22:43:44.280Z,26.27
2018-05-23T22:46:12.554Z,26.40
2018-05-23T22:48:40.718Z,27.60
2018-05-23T22:51:08.856Z,28.67
2018-05-23T22:53:37.765Z,29.23
2018-05-23T22:56:05.904Z,25.83
2018-05-23T22:58:35.540Z,26.83
2018-05-23T23:01:04.432Z,24.97
2018-05-23T23:03:33.437Z,24.07
2018-05-23T23:06:01.572Z,23.80
2018-05-23T23:08:29.788Z,24.40
2018-05-23T23:10:57.936Z,24.10
2018-05-23T23:13:26.866Z,24.13
2018-05-23T23:15:55.128Z,25.67
2018-05-23T23:18:23.256Z,26.47
2018-05-23T23:20:51.386Z,24.00
2018-05-23T23:23:19.570Z,25.47
2018-05-23T23:25:47.700Z,25.87
2018-05-23T23:28:16.602Z,25.50
2018-05-23T23:30:45.518Z,24.23
2018-05-23T23:33:13.655Z,22.53
2018-05-23T23:35:42.680Z,23.80
2018-05-23T23:38:10.812Z,24.77
2018-05-23T23:40:39.032Z,24.23
2018-05-23T23:43:07.159Z,25.03
2018-05-23T23:45:35.366Z,24.63
2018-05-23T23:48:03.495Z,26.37
2018-05-23T23:50:31.707Z,27.07
2018-05-23T23:52:59.896Z,28.97
2018-05-23T23:55:28.036Z,25.97
2018-05-23T23:57:56.935Z,25.67
